Time;durP1;ratioP1;P1;durP2;ratioP2;P2;SDS_P1;SDS_P2;PMS_P1;PMS_P2;Temp;Humidity;BMP_temperature;BMP_pressure;BME280_temperature;BME280_humidity;BME280_pressure;Samples;Min_cycle;Max_cycle;Signal;HPM_P1;HPM_P2
2022/07/19 03:03:43;;;;;;;2.40;0.60;;;24.00;53.00;;;;;;4956372;29;20479;-74
2022/07/19 03:05:51;;;;;;;0.60;0.50;;;24.00;53.30;;;;;;4957431;29;20803;-74
2022/07/19 03:08:17;;;;;;;0.70;0.60;;;24.00;53.00;;;;;;4957769;29;20858;-74
2022/07/19 03:10:44;;;;;;;0.70;0.50;;;24.00;52.80;;;;;;4960463;28;20486;-73
2022/07/19 03:13:11;;;;;;;0.80;0.60;;;23.90;52.90;;;;;;4976998;28;20454;-74
2022/07/19 03:15:38;;;;;;;0.70;0.60;;;23.80;53.20;;;;;;4978313;28;20465;-73
2022/07/19 03:18:06;;;;;;;0.70;0.60;;;23.80;53.50;;;;;;4976897;28;20795;-74
2022/07/19 03:20:33;;;;;;;0.70;0.60;;;23.70;53.40;;;;;;4976759;28;20450;-74
2022/07/19 03:22:59;;;;;;;0.70;0.60;;;23.70;53.90;;;;;;4976825;28;20457;-73
2022/07/19 03:25:26;;;;;;;0.70;0.60;;;23.60;53.80;;;;;;4976751;28;20457;-74
2022/07/19 03:27:53;;;;;;;0.70;0.60;;;23.50;53.80;;;;;;4976736;28;20500;-73
2022/07/19 03:30:20;;;;;;;0.70;0.60;;;23.50;53.70;;;;;;4976622;28;20533;-73
2022/07/19 03:32:47;;;;;;;0.70;0.60;;;23.50;53.80;;;;;;4976550;28;20520;-74
2022/07/19 03:35:15;;;;;;;0.70;0.60;;;23.50;54.00;;;;;;4976586;28;20513;-74
2022/07/19 03:37:42;;;;;;;0.70;0.60;;;23.40;54.30;;;;;;4976554;28;20454;-73
2022/07/19 03:40:10;;;;;;;0.70;0.70;;;23.40;54.80;;;;;;4976507;28;20505;-74
2022/07/19 03:42:37;;;;;;;0.70;0.60;;;23.30;54.90;;;;;;4976051;28;20898;-74
2022/07/19 03:45:04;;;;;;;0.70;0.70;;;23.20;55.10;;;;;;4976431;28;20454;-74
2022/07/19 03:47:31;;;;;;;0.70;0.60;;;23.10;55.40;;;;;;4976324;28;20449;-74
2022/07/19 03:49:58;;;;;;;0.70;0.60;;;23.00;55.80;;;;;;4976274;28;20892;-73
2022/07/19 03:52:26;;;;;;;0.70;0.60;;;23.00;55.60;;;;;;4976210;28;21048;-74
2022/07/19 03:54:53;;;;;;;0.70;0.60;;;23.00;55.90;;;;;;4975884;28;20623;-73
2022/07/19 03:57:20;;;;;;;0.60;0.50;;;23.00;55.40;;;;;;4975935;28;21052;-73
2022/07/19 03:59:46;;;;;;;0.70;0.60;;;23.00;55.80;;;;;;4976007;28;20453;-73
2022/07/19 04:02:13;;;;;;;0.70;0.60;;;23.00;55.80;;;;;;4975745;28;20237;-73
2022/07/19 04:04:40;;;;;;;0.63;0.60;;;23.00;55.70;;;;;;4976087;28;20464;-74
2022/07/19 04:07:06;;;;;;;0.70;0.60;;;23.00;56.00;;;;;;4975985;28;20446;-73
2022/07/19 04:09:34;;;;;;;0.70;0.57;;;23.00;55.70;;;;;;4975959;28;20541;-74
2022/07/19 04:12:01;;;;;;;0.70;0.60;;;23.00;55.80;;;;;;4975759;28;20486;-74
2022/07/19 04:14:28;;;;;;;0.90;0.63;;;23.00;55.90;;;;;;4975854;28;20517;-73
2022/07/19 04:16:54;;;;;;;0.70;0.60;;;23.00;55.80;;;;;;4975466;28;20968;-73
2022/07/19 04:19:21;;;;;;;0.80;0.80;;;23.10;55.80;;;;;;4975742;28;20238;-74
2022/07/19 04:21:48;;;;;;;0.70;0.60;;;23.10;55.90;;;;;;4975673;28;20469;-74
2022/07/19 04:24:14;;;;;;;0.70;0.60;;;23.10;55.90;;;;;;4975687;28;20452;-73
2022/07/19 04:26:42;;;;;;;0.70;0.70;;;23.10;56.20;;;;;;4975630;28;20454;-73
2022/07/19 04:29:09;;;;;;;1.00;0.70;;;23.20;56.10;;;;;;4975598;28;20442;-73
2022/07/19 04:31:35;;;;;;;0.70;0.60;;;23.20;56.40;;;;;;4975391;28;20489;-74
2022/07/19 04:34:02;;;;;;;0.80;0.60;;;23.20;56.80;;;;;;4975696;28;20449;-74
2022/07/19 04:36:29;;;;;;;0.70;0.60;;;23.20;56.80;;;;;;4975390;28;20446;-73
2022/07/19 04:38:55;;;;;;;0.80;0.70;;;23.20;57.30;;;;;;4975390;28;20257;-74
2022/07/19 04:41:22;;;;;;;0.70;0.60;;;23.40;57.30;;;;;;4975299;28;20466;-74
2022/07/19 04:43:50;;;;;;;0.80;0.70;;;23.40;57.30;;;;;;4975285;28;20449;-73
2022/07/19 04:46:17;;;;;;;0.70;0.60;;;23.50;57.50;;;;;;4974970;28;20509;-74
2022/07/19 04:48:43;;;;;;;0.70;0.70;;;23.60;57.80;;;;;;4974926;28;20453;-74
2022/07/19 04:51:10;;;;;;;0.70;0.53;;;23.70;57.70;;;;;;4975174;28;20486;-73
2022/07/19 04:53:36;;;;;;;0.70;0.60;;;23.70;57.50;;;;;;4975153;28;20485;-74
2022/07/19 04:56:03;;;;;;;0.70;0.60;;;23.80;57.40;;;;;;4975931;28;20512;-73
2022/07/19 04:58:31;;;;;;;1.43;0.60;;;23.90;57.10;;;;;;4975102;28;20461;-74
2022/07/19 05:00:59;;;;;;;0.70;0.60;;;24.00;57.00;;;;;;4974848;28;20572;-74
2022/07/19 05:03:25;;;;;;;0.70;0.60;;;24.10;57.00;;;;;;4974983;28;20462;-73
2022/07/19 05:05:52;;;;;;;0.70;0.70;;;24.20;56.40;;;;;;4974994;28;20477;-73
2022/07/19 05:08:19;;;;;;;0.70;0.60;;;24.20;56.50;;;;;;4974926;28;20509;-73
2022/07/19 05:10:46;;;;;;;0.70;0.60;;;24.30;56.80;;;;;;4974305;28;20489;-74
2022/07/19 05:13:12;;;;;;;0.83;0.70;;;24.30;55.80;;;;;;4974507;28;21008;-74
2022/07/19 05:15:39;;;;;;;0.80;0.70;;;24.30;54.90;;;;;;4974840;28;20450;-74
2022/07/19 05:18:07;;;;;;;0.70;0.60;;;24.40;54.70;;;;;;4974768;28;20450;-74
2022/07/19 05:20:34;;;;;;;0.70;0.60;;;24.60;54.50;;;;;;4974680;28;20509;-74
2022/07/19 05:23:00;;;;;;;0.70;0.60;;;24.70;54.20;;;;;;4974768;28;20879;-74
2022/07/19 05:25:27;;;;;;;0.70;0.60;;;24.90;54.10;;;;;;4974678;28;20446;-74
2022/07/19 05:27:55;;;;;;;0.80;0.60;;;25.00;54.20;;;;;;4974694;28;20482;-74
2022/07/19 05:30:22;;;;;;;1.10;0.60;;;25.20;53.50;;;;;;4974568;28;20461;-73
2022/07/19 05:32:49;;;;;;;0.80;0.70;;;25.30;52.90;;;;;;4974322;28;20974;-73
2022/07/19 05:35:17;;;;;;;1.00;0.70;;;25.30;52.90;;;;;;4974260;28;20831;-74
2022/07/19 05:37:43;;;;;;;0.70;0.60;;;25.40;53.00;;;;;;4974536;28;20863;-73
2022/07/19 05:40:11;;;;;;;0.70;0.60;;;25.60;53.20;;;;;;4974249;28;20453;-74
2022/07/19 05:42:38;;;;;;;0.70;0.70;;;25.70;51.50;;;;;;4974451;28;20227;-74
2022/07/19 05:45:05;;;;;;;0.90;0.70;;;25.90;52.00;;;;;;4974460;28;20453;-74
2022/07/19 05:47:31;;;;;;;0.70;0.60;;;26.10;52.50;;;;;;4974524;28;20453;-73
2022/07/19 05:49:59;;;;;;;0.80;0.60;;;26.20;51.90;;;;;;4974443;28;20524;-74
2022/07/19 05:52:27;;;;;;;0.70;0.63;;;26.30;52.60;;;;;;4974315;28;20490;-74
2022/07/19 05:54:53;;;;;;;0.80;0.70;;;26.30;52.90;;;;;;4974203;28;20541;-74
2022/07/19 05:57:20;;;;;;;1.10;0.80;;;26.30;53.30;;;;;;4974327;28;20461;-74
2022/07/19 06:00:14;;;;;;;2.50;0.70;;;26.30;54.40;;;;;;4974345;28;20803;-74
2022/07/19 06:02:41;;;;;;;0.70;0.70;;;26.30;52.90;;;;;;4973855;28;20474;-74
2022/07/19 06:05:08;;;;;;;0.70;0.70;;;26.30;53.10;;;;;;4974026;28;20957;-74
2022/07/19 06:07:36;;;;;;;1.30;0.60;;;26.30;52.00;;;;;;4973978;28;20484;-74
2022/07/19 06:10:04;;;;;;;0.80;0.80;;;26.60;51.20;;;;;;4974228;28;20469;-74
2022/07/19 06:12:30;;;;;;;0.70;0.60;;;26.50;51.00;;;;;;4974081;28;20489;-74
2022/07/19 06:14:57;;;;;;;0.80;0.70;;;26.60;51.30;;;;;;4974228;28;20492;-74
2022/07/19 06:17:24;;;;;;;0.70;0.70;;;26.80;51.50;;;;;;4973899;28;20969;-74
2022/07/19 06:19:50;;;;;;;1.43;0.80;;;27.00;51.90;;;;;;4973899;28;20458;-74
2022/07/19 06:22:17;;;;;;;0.80;0.70;;;27.10;52.20;;;;;;4974610;28;20522;-74
2022/07/19 06:24:45;;;;;;;0.97;0.77;;;27.20;51.30;;;;;;4977791;28;20445;-73
2022/07/19 06:27:11;;;;;;;0.90;0.73;;;27.00;49.60;;;;;;4977769;28;20504;-73
2022/07/19 06:29:38;;;;;;;0.90;0.70;;;27.00;50.30;;;;;;4977747;28;20497;-73
2022/07/19 06:32:05;;;;;;;0.70;0.70;;;27.10;50.90;;;;;;4977566;28;20486;-74
2022/07/19 06:34:32;;;;;;;0.90;0.70;;;27.40;50.80;;;;;;4977693;28;20454;-74
2022/07/19 06:36:58;;;;;;;0.80;0.70;;;27.50;49.50;;;;;;4977669;28;20206;-74
2022/07/19 06:39:25;;;;;;;0.87;0.70;;;27.90;49.70;;;;;;4977583;28;20449;-74
2022/07/19 06:41:53;;;;;;;1.37;0.70;;;28.20;48.70;;;;;;4977470;28;20469;-74
2022/07/19 06:44:20;;;;;;;0.90;0.80;;;28.20;47.60;;;;;;4977539;28;20856;-74
2022/07/19 06:46:46;;;;;;;1.92;0.70;;;28.00;48.00;;;;;;4977177;28;20877;-73
2022/07/19 06:49:13;;;;;;;0.80;0.80;;;28.10;47.70;;;;;;4977165;28;20707;-74
2022/07/19 06:51:39;;;;;;;0.70;0.50;;;28.10;49.00;;;;;;4977285;28;20481;-74
2022/07/19 06:54:06;;;;;;;0.70;0.70;;;28.40;47.80;;;;;;4977335;28;20454;-74
2022/07/19 06:56:33;;;;;;;0.90;0.80;;;28.70;47.10;;;;;;4977303;28;20508;-73
2022/07/19 06:59:01;;;;;;;0.73;0.70;;;28.80;47.10;;;;;;4977494;28;20449;-73
2022/07/19 07:01:27;;;;;;;0.70;0.70;;;28.90;46.00;;;;;;4977005;28;20482;-74
2022/07/19 07:03:54;;;;;;;1.10;0.90;;;29.20;47.00;;;;;;4977183;28;20202;-74
2022/07/19 07:06:21;;;;;;;0.70;0.70;;;29.40;47.00;;;;;;4977146;28;20454;-74
2022/07/19 07:08:47;;;;;;;0.80;0.80;;;29.40;45.60;;;;;;4976769;28;20453;-75
2022/07/19 07:11:14;;;;;;;2.60;0.77;;;29.30;46.70;;;;;;4976956;28;20536;-74
2022/07/19 07:13:41;;;;;;;1.20;0.80;;;29.30;47.90;;;;;;4977024;28;20450;-74
2022/07/19 07:16:09;;;;;;;1.10;0.80;;;29.50;46.90;;;;;;4976970;28;20449;-74
2022/07/19 07:18:36;;;;;;;0.90;0.70;;;29.80;46.30;;;;;;4976874;28;20454;-73
2022/07/19 07:21:03;;;;;;;1.77;1.00;;;29.60;46.20;;;;;;4976796;28;20544;-74
2022/07/19 07:23:29;;;;;;;1.10;0.80;;;29.40;46.50;;;;;;4976490;28;20512;-75
2022/07/19 07:25:56;;;;;;;1.00;0.90;;;29.50;47.20;;;;;;4976761;28;20442;-74
2022/07/19 07:28:23;;;;;;;1.00;0.80;;;29.50;46.80;;;;;;4976753;28;20449;-74
2022/07/19 07:30:50;;;;;;;1.00;0.90;;;29.50;46.40;;;;;;4976582;28;20524;-74
2022/07/19 07:33:18;;;;;;;1.17;0.83;;;29.40;45.60;;;;;;4976204;28;20454;-75
2022/07/19 07:35:44;;;;;;;3.10;1.00;;;29.40;46.70;;;;;;4976627;28;20450;-74
2022/07/19 07:38:11;;;;;;;1.00;0.70;;;29.40;46.10;;;;;;4976565;28;20481;-74
2022/07/19 07:40:37;;;;;;;1.17;0.90;;;29.30;46.50;;;;;;4976399;28;20509;-75
2022/07/19 07:43:05;;;;;;;1.53;0.83;;;29.40;44.90;;;;;;4976485;28;20496;-74
2022/07/19 07:45:33;;;;;;;1.00;0.70;;;29.50;45.20;;;;;;4976408;28;20512;-74
2022/07/19 07:48:00;;;;;;;1.17;0.70;;;29.50;43.50;;;;;;4976346;28;20454;-74
2022/07/19 07:50:28;;;;;;;0.90;0.70;;;29.50;44.70;;;;;;4975915;28;20820;-75
2022/07/19 07:52:54;;;;;;;1.80;0.73;;;29.70;44.00;;;;;;4976127;28;20512;-74
2022/07/19 07:55:21;;;;;;;0.90;0.60;;;29.90;44.60;;;;;;4976222;28;20501;-75
2022/07/19 07:57:48;;;;;;;0.70;0.60;;;29.80;43.60;;;;;;4976149;28;20496;-74
2022/07/19 08:00:15;;;;;;;1.63;0.70;;;29.80;43.40;;;;;;4975845;28;20949;-74
2022/07/19 08:02:43;;;;;;;0.70;0.60;;;29.90;43.50;;;;;;4975702;28;20481;-74
2022/07/19 08:05:11;;;;;;;0.90;0.70;;;29.80;43.20;;;;;;4976035;28;20449;-74
2022/07/19 08:07:39;;;;;;;2.20;0.90;;;30.00;43.10;;;;;;4975987;28;20458;-74
2022/07/19 08:10:08;;;;;;;0.70;0.70;;;30.10;42.50;;;;;;4975820;28;20454;-75
2022/07/19 08:12:35;;;;;;;0.70;0.70;;;30.20;42.00;;;;;;4975811;28;20482;-74
2022/07/19 08:15:02;;;;;;;0.70;0.60;;;30.30;40.90;;;;;;4975516;28;20946;-74
2022/07/19 08:17:28;;;;;;;0.80;0.60;;;30.00;41.80;;;;;;4975428;28;20796;-74
2022/07/19 08:19:55;;;;;;;0.70;0.60;;;30.10;41.70;;;;;;4975717;28;20505;-74
2022/07/19 08:22:21;;;;;;;0.70;0.60;;;30.10;41.60;;;;;;4975588;28;20462;-74
2022/07/19 08:24:49;;;;;;;0.73;0.63;;;30.30;41.50;;;;;;4975613;28;20450;-75
2022/07/19 08:27:16;;;;;;;0.70;0.60;;;30.50;42.10;;;;;;4975593;28;20449;-74
2022/07/19 08:29:43;;;;;;;1.97;0.80;;;30.70;41.40;;;;;;4975625;28;20450;-74
2022/07/19 08:32:09;;;;;;;2.40;0.80;;;30.90;41.60;;;;;;4975425;28;20481;-74
2022/07/19 08:34:36;;;;;;;1.17;0.60;;;31.10;41.20;;;;;;4975509;28;20477;-74
2022/07/19 08:37:03;;;;;;;0.70;0.60;;;31.10;40.50;;;;;;4975476;28;20450;-75
2022/07/19 08:39:30;;;;;;;0.70;0.60;;;31.20;41.00;;;;;;4975419;28;20450;-75
2022/07/19 08:41:58;;;;;;;0.70;0.60;;;31.30;40.10;;;;;;4975011;28;20969;-74
2022/07/19 08:44:25;;;;;;;1.33;0.60;;;31.20;40.00;;;;;;4975115;28;20446;-74
2022/07/19 08:46:52;;;;;;;0.60;0.50;;;31.20;39.90;;;;;;4974792;28;20457;-75
2022/07/19 08:49:20;;;;;;;0.70;0.60;;;31.50;39.90;;;;;;4975250;28;20297;-75
2022/07/19 08:51:49;;;;;;;0.60;0.50;;;31.50;40.20;;;;;;4975069;28;20903;-75
2022/07/19 08:54:16;;;;;;;0.70;0.60;;;31.50;39.70;;;;;;4975152;28;20458;-75
2022/07/19 08:59:28;;;;;;;0.80;0.70;;;31.30;40.60;;;;;;4975201;28;20422;-75
2022/07/19 09:01:54;;;;;;;0.70;0.60;;;31.40;40.10;;;;;;4974682;28;20301;-75
2022/07/19 09:04:24;;;;;;;0.90;0.60;;;31.40;38.30;;;;;;4974699;28;20921;-75
2022/07/19 09:06:53;;;;;;;1.93;0.70;;;31.40;38.60;;;;;;4976385;28;20525;-75
2022/07/19 09:09:21;;;;;;;1.93;0.60;;;31.50;40.30;;;;;;4974909;28;20500;-74
2022/07/19 09:11:53;;;;;;;0.60;0.60;;;31.10;39.30;;;;;;4974750;28;20541;-74
2022/07/19 09:14:23;;;;;;;1.30;0.60;;;31.30;39.80;;;;;;4974869;28;20195;-75
2022/07/19 09:16:53;;;;;;;0.70;0.57;;;31.40;40.10;;;;;;4976446;28;20458;-75
2022/07/19 09:19:21;;;;;;;0.70;0.60;;;31.30;38.80;;;;;;4974862;28;20435;-75
2022/07/19 09:21:58;;;;;;;0.70;0.60;;;31.40;37.80;;;;;;4974662;28;20473;-75
2022/07/19 09:24:26;;;;;;;1.23;0.77;;;31.40;38.30;;;;;;4974706;28;20438;-75
2022/07/19 09:26:59;;;;;;;0.60;0.50;;;31.20;38.20;;;;;;4974711;28;20453;-75
2022/07/19 09:29:27;;;;;;;0.60;0.50;;;31.30;38.80;;;;;;4974675;28;20441;-75
2022/07/19 09:32:08;;;;;;;0.70;0.60;;;31.40;40.30;;;;;;4975054;28;20494;-75
2022/07/19 09:34:36;;;;;;;0.70;0.60;;;31.30;39.70;;;;;;4974694;28;20438;-75
2022/07/19 09:37:10;;;;;;;0.70;0.70;;;31.40;39.70;;;;;;4974621;28;20449;-75
2022/07/19 09:39:39;;;;;;;0.70;0.60;;;31.40;38.30;;;;;;4974602;28;20835;-75
2022/07/19 09:42:05;;;;;;;1.43;0.70;;;31.50;40.20;;;;;;4974480;28;20560;-75
2022/07/19 09:44:32;;;;;;;0.63;0.53;;;31.50;38.60;;;;;;4974526;28;20508;-75
2022/07/19 09:46:59;;;;;;;0.70;0.70;;;31.50;37.80;;;;;;4974505;28;20450;-75
2022/07/19 09:49:28;;;;;;;1.00;0.80;;;31.70;38.60;;;;;;4974483;28;20502;-75
2022/07/19 09:51:55;;;;;;;0.80;0.60;;;31.90;37.50;;;;;;4974348;28;20564;-75
2022/07/19 09:54:24;;;;;;;0.70;0.70;;;32.00;38.40;;;;;;4974424;28;20457;-75
2022/07/19 09:56:52;;;;;;;0.90;0.60;;;32.00;37.80;;;;;;4975927;28;20261;-75
2022/07/19 09:59:20;;;;;;;0.60;0.60;;;32.30;38.00;;;;;;4978388;28;20269;-75
2022/07/19 10:01:49;;;;;;;0.70;0.70;;;32.50;37.30;;;;;;4977799;28;21007;-75
2022/07/19 10:04:18;;;;;;;0.80;0.60;;;32.70;35.70;;;;;;4978252;28;20309;-75
2022/07/19 10:06:47;;;;;;;0.80;0.73;;;32.60;34.90;;;;;;4978437;28;20206;-75
2022/07/19 10:09:17;;;;;;;0.70;0.60;;;32.50;34.50;;;;;;4978347;28;20457;-75
2022/07/19 10:11:44;;;;;;;0.70;0.60;;;32.60;34.90;;;;;;4978038;28;20528;-76
2022/07/19 10:14:12;;;;;;;0.90;0.70;;;32.70;34.00;;;;;;4978092;28;20210;-75
2022/07/19 10:16:49;;;;;;;0.70;0.68;;;32.60;35.00;;;;;;4978035;28;20485;-75
2022/07/19 10:19:19;;;;;;;0.80;0.80;;;32.60;34.90;;;;;;4978040;28;20194;-75
2022/07/19 10:21:48;;;;;;;0.70;0.70;;;32.80;35.10;;;;;;4977869;28;20505;-75
2022/07/19 10:24:15;;;;;;;0.70;0.70;;;33.00;34.10;;;;;;4977555;28;20869;-75
2022/07/19 10:26:43;;;;;;;0.70;0.60;;;32.80;34.90;;;;;;4977806;28;20458;-75
2022/07/19 10:29:11;;;;;;;0.70;0.70;;;32.80;34.20;;;;;;4977794;28;20524;-75
2022/07/19 10:31:40;;;;;;;0.70;0.60;;;32.80;35.10;;;;;;4977743;28;20520;-75
2022/07/19 10:34:07;;;;;;;0.90;0.73;;;32.80;35.60;;;;;;4977670;28;20489;-75
2022/07/19 10:36:39;;;;;;;0.70;0.60;;;32.90;35.20;;;;;;4977709;28;20450;-75
2022/07/19 10:39:31;;;;;;;0.90;0.60;;;32.90;35.10;;;;;;4977589;28;20450;-75
2022/07/19 10:42:09;;;;;;;0.80;0.70;;;32.80;34.30;;;;;;4977529;28;20480;-75
2022/07/19 10:44:56;;;;;;;0.73;0.60;;;32.90;35.40;;;;;;4977569;28;20528;-75
2022/07/19 10:48:02;;;;;;;0.90;0.70;;;32.70;34.80;;;;;;4977207;28;20450;-75
2022/07/19 10:50:54;;;;;;;0.70;0.60;;;32.90;35.70;;;;;;4977408;28;20449;-75
2022/07/19 10:53:55;;;;;;;0.70;0.60;;;33.30;36.20;;;;;;4977302;28;20528;-75
2022/07/19 10:56:24;;;;;;;0.80;0.60;;;33.50;34.60;;;;;;4977426;28;20489;-76
2022/07/19 10:58:54;;;;;;;0.70;0.67;;;33.70;34.50;;;;;;4977298;28;20546;-76
2022/07/19 11:01:22;;;;;;;0.70;0.67;;;33.20;34.00;;;;;;4976938;28;20484;-76
2022/07/19 11:03:51;;;;;;;0.60;0.60;;;33.10;34.80;;;;;;4977183;28;20443;-76
2022/07/19 11:06:24;;;;;;;0.70;0.60;;;32.90;36.10;;;;;;4977131;28;20449;-76
2022/07/19 11:08:55;;;;;;;1.10;0.70;;;32.90;35.50;;;;;;4976233;28;20492;-75
2022/07/19 11:11:23;;;;;;;0.75;0.65;;;32.80;35.50;;;;;;4977086;28;20321;-75
2022/07/19 11:13:52;;;;;;;0.65;0.60;;;33.20;36.00;;;;;;4976948;28;20222;-75
2022/07/19 11:16:19;;;;;;;0.60;0.60;;;33.40;34.00;;;;;;4976686;28;20207;-76
2022/07/19 11:18:46;;;;;;;0.60;0.60;;;33.50;34.10;;;;;;4976926;28;20445;-75
2022/07/19 11:21:14;;;;;;;0.70;0.70;;;33.40;34.50;;;;;;4976511;28;20893;-76
2022/07/19 11:23:42;;;;;;;0.63;0.60;;;33.50;34.20;;;;;;4976851;28;20438;-75
2022/07/19 11:26:11;;;;;;;0.67;0.60;;;33.50;34.50;;;;;;4976782;28;20471;-75
2022/07/19 11:28:40;;;;;;;0.80;0.63;;;33.60;34.20;;;;;;4976637;28;20445;-75
2022/07/19 11:31:14;;;;;;;0.63;0.63;;;33.50;33.80;;;;;;4976340;28;21032;-75
2022/07/19 11:33:41;;;;;;;0.70;0.70;;;33.50;33.80;;;;;;4976573;28;20485;-75
2022/07/19 11:36:09;;;;;;;1.17;0.70;;;33.50;33.70;;;;;;4976277;28;20933;-75
2022/07/19 11:38:40;;;;;;;0.80;0.67;;;33.60;34.80;;;;;;4976570;28;20497;-75
2022/07/19 11:41:16;;;;;;;0.73;0.70;;;34.00;34.00;;;;;;4976492;28;20473;-76
2022/07/19 11:43:43;;;;;;;0.70;0.60;;;34.10;33.60;;;;;;4976234;28;20438;-75
2022/07/19 11:46:10;;;;;;;0.60;0.60;;;34.00;34.20;;;;;;4976101;28;20988;-75
2022/07/19 11:48:37;;;;;;;0.70;0.60;;;34.20;34.90;;;;;;4976044;28;20851;-75
2022/07/19 11:51:08;;;;;;;0.80;0.60;;;34.20;32.80;;;;;;4976240;28;20470;-76
2022/07/19 11:53:37;;;;;;;0.70;0.60;;;34.20;33.80;;;;;;4976238;28;20505;-76
2022/07/19 11:56:05;;;;;;;0.80;0.80;;;34.20;34.80;;;;;;4976217;28;20457;-76
2022/07/19 11:58:33;;;;;;;0.97;0.67;;;34.40;34.60;;;;;;4976156;28;20454;-76
2022/07/19 12:01:02;;;;;;;0.80;0.70;;;34.60;33.30;;;;;;4975901;28;20485;-76
2022/07/19 12:03:28;;;;;;;0.90;0.60;;;34.80;33.60;;;;;;4976158;28;20525;-75
2022/07/19 12:05:57;;;;;;;0.60;0.60;;;34.70;32.70;;;;;;4976061;28;20449;-75
2022/07/19 12:08:34;;;;;;;0.70;0.70;;;34.70;33.50;;;;;;4976032;28;20532;-75
2022/07/19 12:11:00;;;;;;;1.53;0.80;;;34.90;33.60;;;;;;4975918;28;20469;-76
2022/07/19 12:13:32;;;;;;;1.33;0.63;;;35.10;33.70;;;;;;4975858;28;20481;-75
2022/07/19 12:16:08;;;;;;;1.10;0.67;;;35.10;33.40;;;;;;4975733;28;20453;-76
2022/07/19 12:18:46;;;;;;;0.80;0.60;;;35.30;33.30;;;;;;4975847;28;20438;-76
2022/07/19 12:21:27;;;;;;;0.80;0.63;;;34.90;33.70;;;;;;4975676;28;20469;-76
2022/07/19 12:24:21;;;;;;;0.60;0.60;;;34.70;33.40;;;;;;4975754;28;20462;-75
2022/07/19 12:27:00;;;;;;;0.60;0.60;;;34.90;33.70;;;;;;4975721;28;20198;-75
2022/07/19 12:29:28;;;;;;;0.70;0.63;;;35.10;35.00;;;;;;4975740;28;20871;-75
2022/07/19 12:31:59;;;;;;;1.50;0.70;;;34.80;33.80;;;;;;4975549;28;20230;-76
2022/07/19 12:34:26;;;;;;;0.70;0.67;;;34.90;33.20;;;;;;4975221;28;20648;-75
2022/07/19 12:36:54;;;;;;;1.27;0.70;;;35.00;34.10;;;;;;4975516;28;20528;-75
2022/07/19 12:39:22;;;;;;;0.80;0.70;;;35.10;33.60;;;;;;4975455;28;20445;-75
2022/07/19 12:42:01;;;;;;;0.80;0.80;;;35.30;34.40;;;;;;4975302;28;20477;-73
2022/07/19 12:44:29;;;;;;;0.60;0.60;;;35.30;33.70;;;;;;4975364;28;20454;-73
2022/07/19 12:46:58;;;;;;;2.00;0.70;;;35.20;33.30;;;;;;4975266;28;20445;-73
2022/07/19 12:49:25;;;;;;;0.77;0.77;;;35.10;33.60;;;;;;4975318;28;20202;-73
2022/07/19 12:51:52;;;;;;;0.70;0.70;;;35.20;34.40;;;;;;4975166;28;20473;-75
2022/07/19 12:54:18;;;;;;;0.70;0.60;;;35.30;33.30;;;;;;4975097;28;20485;-76
2022/07/19 12:56:45;;;;;;;0.70;0.60;;;35.30;33.10;;;;;;4975122;28;20449;-75
2022/07/19 13:01:57;;;;;;;0.67;0.60;;;35.50;33.30;;;;;;4974785;28;20464;-75
2022/07/19 13:04:24;;;;;;;0.80;0.70;;;35.40;32.80;;;;;;4975005;28;20454;-76
2022/07/19 13:06:51;;;;;;;0.70;0.60;;;35.40;33.20;;;;;;4974913;28;20453;-75
2022/07/19 13:09:18;;;;;;;0.70;0.60;;;35.50;33.10;;;;;;4975191;28;20461;-75
2022/07/19 13:11:45;;;;;;;0.70;0.70;;;35.50;33.70;;;;;;4974604;28;20556;-75
2022/07/19 13:14:12;;;;;;;0.83;0.60;;;35.30;32.80;;;;;;4974808;28;20481;-75
2022/07/19 13:16:38;;;;;;;0.70;0.60;;;35.30;32.90;;;;;;4974923;28;20508;-75
2022/07/19 13:19:07;;;;;;;0.90;0.70;;;35.40;33.00;;;;;;4974821;28;20482;-75
2022/07/19 13:21:33;;;;;;;0.70;0.70;;;35.60;34.00;;;;;;4974727;28;20882;-75
2022/07/19 13:24:00;;;;;;;0.67;0.60;;;35.70;32.30;;;;;;4974810;28;20597;-76
2022/07/19 13:26:27;;;;;;;1.53;0.90;;;35.70;32.40;;;;;;4974418;28;21007;-76
2022/07/19 13:28:54;;;;;;;1.00;0.70;;;35.70;32.40;;;;;;4974746;28;20461;-75
2022/07/19 13:31:20;;;;;;;0.90;0.90;;;35.70;31.40;;;;;;4974203;28;20469;-76
2022/07/19 13:33:47;;;;;;;0.70;0.70;;;35.60;32.00;;;;;;4974236;28;21001;-76
2022/07/19 13:36:15;;;;;;;0.70;0.70;;;35.70;32.60;;;;;;4974682;28;20500;-75
2022/07/19 13:38:42;;;;;;;0.70;0.70;;;35.80;32.40;;;;;;4974595;28;20496;-75
2022/07/19 13:41:09;;;;;;;0.70;0.70;;;35.80;32.50;;;;;;4974579;28;20284;-75
2022/07/19 13:43:36;;;;;;;1.10;0.60;;;35.80;32.20;;;;;;4974626;28;20549;-76
2022/07/19 13:46:03;;;;;;;0.70;0.63;;;35.90;31.80;;;;;;4974244;28;20850;-76
2022/07/19 13:48:30;;;;;;;0.80;0.70;;;35.90;31.60;;;;;;4974245;28;20995;-75
2022/07/19 13:50:56;;;;;;;1.00;0.60;;;35.70;31.00;;;;;;4974438;28;20469;-75
2022/07/19 13:53:24;;;;;;;0.70;0.60;;;35.60;31.00;;;;;;4974405;28;20481;-75
2022/07/19 13:55:51;;;;;;;0.70;0.60;;;35.70;31.70;;;;;;4974406;28;20449;-76
2022/07/19 13:58:18;;;;;;;0.70;0.70;;;35.90;32.60;;;;;;4974358;28;20272;-76
2022/07/19 14:00:46;;;;;;;1.33;0.60;;;35.70;30.60;;;;;;4973906;28;20911;-76
2022/07/19 14:03:14;;;;;;;1.00;0.70;;;35.70;30.80;;;;;;4974120;28;20920;-76
2022/07/19 14:05:41;;;;;;;0.70;0.60;;;35.90;30.90;;;;;;4974384;28;20548;-76
2022/07/19 14:08:08;;;;;;;1.00;0.60;;;35.90;31.30;;;;;;4974365;28;20459;-76
2022/07/19 14:10:36;;;;;;;0.70;0.70;;;36.00;30.70;;;;;;4974170;28;20449;-76
2022/07/19 14:13:03;;;;;;;1.23;0.60;;;36.00;30.90;;;;;;4974253;28;20454;-76
2022/07/19 14:15:30;;;;;;;1.27;0.77;;;36.00;30.80;;;;;;4974318;28;20453;-76
2022/07/19 14:17:57;;;;;;;0.70;0.70;;;36.20;31.60;;;;;;4974288;28;20449;-75
2022/07/19 14:20:24;;;;;;;0.70;0.70;;;36.50;31.20;;;;;;4973923;28;20535;-75
2022/07/19 14:22:51;;;;;;;0.80;0.60;;;36.20;30.10;;;;;;4973873;28;20504;-74
2022/07/19 14:25:18;;;;;;;0.70;0.67;;;36.20;30.00;;;;;;4974188;28;20453;-74
2022/07/19 14:27:46;;;;;;;1.10;0.60;;;35.90;31.30;;;;;;4974156;28;20449;-73
2022/07/19 14:30:13;;;;;;;0.80;0.80;;;35.70;30.30;;;;;;4974141;28;20449;-72
2022/07/19 14:32:39;;;;;;;1.00;0.70;;;36.00;31.60;;;;;;4974080;28;20652;-73
2022/07/19 14:35:07;;;;;;;1.00;0.70;;;36.20;31.50;;;;;;4973999;28;20481;-72
2022/07/19 14:37:33;;;;;;;0.70;0.70;;;36.10;30.60;;;;;;4973771;28;20935;-73
2022/07/19 14:40:00;;;;;;;0.70;0.60;;;36.20;30.90;;;;;;4974051;28;20468;-74
2022/07/19 14:42:29;;;;;;;0.70;0.70;;;36.30;30.80;;;;;;4973958;28;20473;-73
2022/07/19 14:44:57;;;;;;;0.90;0.60;;;36.30;29.60;;;;;;4976904;28;20532;-73
2022/07/19 14:47:23;;;;;;;0.70;0.70;;;36.30;30.40;;;;;;4977535;28;20449;-73
2022/07/19 14:49:50;;;;;;;0.80;0.70;;;36.40;30.40;;;;;;4977508;28;20499;-73
2022/07/19 14:52:17;;;;;;;0.80;0.70;;;36.20;30.40;;;;;;4977408;28;20492;-73
2022/07/19 14:54:44;;;;;;;0.70;0.70;;;36.40;30.40;;;;;;4977324;28;20485;-72
2022/07/19 14:57:10;;;;;;;0.70;0.60;;;36.60;30.40;;;;;;4976920;28;20449;-73
2022/07/19 14:59:37;;;;;;;0.70;0.60;;;36.50;30.20;;;;;;4977283;28;20500;-73
2022/07/19 15:02:05;;;;;;;0.83;0.70;;;36.70;30.70;;;;;;4976874;28;20234;-73
2022/07/19 15:04:32;;;;;;;0.83;0.70;;;36.80;29.70;;;;;;4977232;28;20497;-72
2022/07/19 15:06:59;;;;;;;0.80;0.70;;;36.70;30.20;;;;;;4977231;28;20532;-73
2022/07/19 15:09:25;;;;;;;1.10;0.70;;;36.50;30.40;;;;;;4977153;28;20540;-73
2022/07/19 15:11:52;;;;;;;0.90;0.60;;;36.60;31.00;;;;;;4976745;28;20907;-73
2022/07/19 15:14:19;;;;;;;0.90;0.70;;;36.50;30.60;;;;;;4976911;28;20485;-73
2022/07/19 15:16:46;;;;;;;1.30;0.63;;;36.40;30.80;;;;;;4978318;28;20457;-72
2022/07/19 15:19:14;;;;;;;0.77;0.77;;;36.80;30.90;;;;;;4977010;28;20449;-72
2022/07/19 15:21:41;;;;;;;0.90;0.70;;;37.10;30.30;;;;;;4976789;28;20472;-72
2022/07/19 15:24:08;;;;;;;0.63;0.60;;;37.20;29.90;;;;;;4976849;28;20496;-72
2022/07/19 15:26:34;;;;;;;0.70;0.63;;;36.90;29.50;;;;;;4976800;28;20497;-72
2022/07/19 15:29:01;;;;;;;0.70;0.60;;;36.90;29.80;;;;;;4976836;28;20480;-72
2022/07/19 15:31:28;;;;;;;1.20;0.60;;;37.00;29.20;;;;;;4976639;28;20520;-71
2022/07/19 15:33:55;;;;;;;1.80;0.70;;;36.90;29.60;;;;;;4976611;28;20893;-72
2022/07/19 15:36:24;;;;;;;0.70;0.60;;;37.10;30.20;;;;;;4976661;28;20476;-72
2022/07/19 15:38:51;;;;;;;0.70;0.70;;;37.00;29.60;;;;;;4976573;28;20548;-71
2022/07/19 15:41:18;;;;;;;0.70;0.60;;;36.70;30.10;;;;;;4976501;28;20308;-72
2022/07/19 15:43:45;;;;;;;0.70;0.70;;;36.70;29.40;;;;;;4976498;28;20206;-72
2022/07/19 15:46:12;;;;;;;0.80;0.80;;;36.60;29.90;;;;;;4976397;28;20496;-71
2022/07/19 15:48:39;;;;;;;0.77;0.70;;;36.80;29.80;;;;;;4976387;28;20508;-71
2022/07/19 15:51:07;;;;;;;0.90;0.83;;;36.60;29.70;;;;;;4976271;28;20496;-71
2022/07/19 15:53:36;;;;;;;0.70;0.60;;;36.50;29.90;;;;;;4975914;28;21003;-71
2022/07/19 15:56:03;;;;;;;0.80;0.80;;;36.30;30.20;;;;;;4975653;28;20891;-72
2022/07/19 15:58:30;;;;;;;3.73;0.90;;;36.30;30.40;;;;;;4976261;28;20461;-72
2022/07/19 16:00:56;;;;;;;0.70;0.70;;;36.30;30.30;;;;;;4975939;28;20536;-71